createdAt,value
2024-01-12T00:00:10.856Z,0
2024-01-12T00:01:54.769Z,0
2024-01-12T00:03:38.468Z,0
2024-01-12T00:05:22.182Z,0
2024-01-12T00:07:05.717Z,0
2024-01-12T00:08:49.299Z,0
2024-01-12T00:10:33.102Z,0
2024-01-12T00:12:16.719Z,0
2024-01-12T00:14:00.656Z,0
2024-01-12T00:15:44.485Z,0
2024-01-12T00:17:27.931Z,0
2024-01-12T00:19:11.784Z,0
2024-01-12T00:20:55.545Z,0
2024-01-12T00:22:39.053Z,0
2024-01-12T00:24:22.745Z,0
2024-01-12T00:26:06.603Z,0
2024-01-12T00:27:50.249Z,0
2024-01-12T00:29:33.809Z,0
2024-01-12T00:31:17.596Z,0
2024-01-12T00:33:01.384Z,0
2024-01-12T00:34:45.084Z,0
2024-01-12T00:36:28.823Z,0
2024-01-12T00:38:12.444Z,0
2024-01-12T00:39:56.157Z,0
2024-01-12T00:41:39.770Z,0
2024-01-12T00:43:23.340Z,0
2024-01-12T00:45:07.153Z,0
2024-01-12T00:46:51.037Z,0
2024-01-12T00:48:34.622Z,0
2024-01-12T00:50:18.410Z,0
2024-01-12T00:52:02.008Z,0
2024-01-12T00:53:45.695Z,0
2024-01-12T00:55:29.298Z,0
2024-01-12T00:57:13.222Z,0
2024-01-12T00:58:56.941Z,0
2024-01-12T01:00:40.589Z,1
2024-01-12T01:02:24.356Z,0
2024-01-12T01:04:08.177Z,0
2024-01-12T01:05:51.671Z,0
2024-01-12T01:07:35.351Z,0
2024-01-12T01:09:19.046Z,0
2024-01-12T01:11:02.852Z,0
2024-01-12T01:12:46.384Z,0
2024-01-12T01:14:30.185Z,0
2024-01-12T01:16:13.932Z,0
2024-01-12T01:17:57.381Z,0
2024-01-12T01:19:41.261Z,0
2024-01-12T01:21:25.066Z,0
2024-01-12T01:23:08.797Z,0
2024-01-12T01:24:52.275Z,0
2024-01-12T01:26:35.878Z,0
2024-01-12T01:28:19.719Z,0
2024-01-12T01:30:03.398Z,0
2024-01-12T01:31:47.243Z,0
2024-01-12T01:33:30.906Z,0
2024-01-12T01:35:14.396Z,0
2024-01-12T01:36:58.346Z,0
2024-01-12T01:38:41.830Z,0
2024-01-12T01:40:25.595Z,0
2024-01-12T01:42:09.514Z,0
2024-01-12T01:43:53.076Z,0
2024-01-12T01:45:36.667Z,0
2024-01-12T01:47:20.563Z,0
2024-01-12T01:49:04.298Z,0
2024-01-12T01:50:48.028Z,0
2024-01-12T01:52:31.742Z,0
2024-01-12T01:54:15.434Z,0
2024-01-12T01:55:59.211Z,0
2024-01-12T01:57:42.649Z,1
2024-01-12T01:59:26.297Z,0
2024-01-12T02:01:10.066Z,0
2024-01-12T02:02:53.965Z,0
2024-01-12T02:04:37.347Z,0
2024-01-12T02:06:21.121Z,0
2024-01-12T02:08:05.016Z,0
2024-01-12T02:09:48.615Z,1
2024-01-12T02:11:32.307Z,0
2024-01-12T02:13:16.016Z,0
2024-01-12T02:14:59.714Z,0
2024-01-12T02:16:43.499Z,0
2024-01-12T02:18:27.133Z,0
2024-01-12T02:20:10.638Z,0
2024-01-12T02:21:54.339Z,0
2024-01-12T02:23:38.199Z,0
2024-01-12T02:25:22.009Z,0
2024-01-12T02:27:05.550Z,0
2024-01-12T02:28:49.168Z,0
2024-01-12T02:30:32.940Z,0
2024-01-12T02:32:16.573Z,0
2024-01-12T02:34:00.507Z,0
2024-01-12T02:35:44.266Z,0
2024-01-12T02:37:27.685Z,0
2024-01-12T02:39:11.572Z,0
2024-01-12T02:40:55.067Z,0
2024-01-12T02:42:38.897Z,0
2024-01-12T02:44:22.495Z,0
2024-01-12T02:46:06.450Z,0
2024-01-12T02:47:49.946Z,0
2024-01-12T02:49:33.797Z,0
2024-01-12T02:51:17.330Z,0
2024-01-12T02:53:01.130Z,0
2024-01-12T02:54:44.695Z,0
2024-01-12T02:56:28.528Z,0
2024-01-12T02:58:12.250Z,0
2024-01-12T02:59:56.099Z,0
2024-01-12T03:01:39.583Z,0
2024-01-12T03:03:23.348Z,0
2024-01-12T03:05:07.229Z,0
2024-01-12T03:06:50.840Z,0
2024-01-12T03:08:34.550Z,0
2024-01-12T03:10:18.329Z,0
2024-01-12T03:12:01.970Z,0
2024-01-12T03:13:45.710Z,0
2024-01-12T03:15:29.376Z,0
2024-01-12T03:17:13.073Z,0
2024-01-12T03:18:56.850Z,0
2024-01-12T03:20:40.537Z,0
2024-01-12T03:22:24.315Z,0
2024-01-12T03:24:07.933Z,0
2024-01-12T03:25:51.641Z,0
2024-01-12T03:27:35.258Z,0
2024-01-12T03:29:18.835Z,0
2024-01-12T03:31:02.797Z,0
2024-01-12T03:32:46.530Z,0
2024-01-12T03:34:30.164Z,0
2024-01-12T03:36:13.851Z,0
2024-01-12T03:37:57.590Z,1
2024-01-12T03:39:41.328Z,0
2024-01-12T03:41:24.976Z,0
2024-01-12T03:43:08.689Z,0
2024-01-12T03:44:52.430Z,0
2024-01-12T03:46:36.107Z,0
2024-01-12T03:48:19.808Z,1
2024-01-12T03:50:03.505Z,0
2024-01-12T03:51:47.246Z,0
2024-01-12T03:53:30.992Z,0
2024-01-12T03:55:14.569Z,0
2024-01-12T03:56:58.297Z,0
2024-01-12T03:58:42.052Z,0
2024-01-12T04:00:25.628Z,0
2024-01-12T04:02:09.414Z,0
2024-01-12T04:03:53.072Z,0
2024-01-12T04:05:36.785Z,0
2024-01-12T04:07:20.634Z,0
2024-01-12T04:09:04.222Z,0
2024-01-12T04:10:47.738Z,0
2024-01-12T04:12:31.576Z,0
2024-01-12T04:14:15.330Z,0
2024-01-12T04:15:59.069Z,0
2024-01-12T04:17:42.737Z,0
2024-01-12T04:19:26.184Z,0
2024-01-12T04:21:10.137Z,0
2024-01-12T04:22:53.803Z,0
2024-01-12T04:24:37.649Z,0
2024-01-12T04:26:21.130Z,1
2024-01-12T04:28:04.916Z,0
2024-01-12T04:29:48.521Z,0
2024-01-12T04:31:32.355Z,0
2024-01-12T04:33:16.177Z,0
2024-01-12T04:34:59.763Z,0
2024-01-12T04:36:43.463Z,0
2024-01-12T04:38:27.178Z,0
2024-01-12T04:40:10.641Z,0
2024-01-12T04:41:54.555Z,0
2024-01-12T04:43:38.386Z,0
2024-01-12T04:45:21.805Z,0
2024-01-12T04:47:05.647Z,1
2024-01-12T04:48:49.388Z,0
2024-01-12T04:50:32.782Z,0
2024-01-12T04:52:16.807Z,0
2024-01-12T04:54:00.553Z,1
2024-01-12T04:55:44.166Z,0
2024-01-12T04:57:27.838Z,0
2024-01-12T04:59:11.664Z,1
2024-01-12T05:00:55.212Z,0
2024-01-12T05:02:39.094Z,0
2024-01-12T05:04:22.745Z,0
2024-01-12T05:06:06.408Z,0
2024-01-12T05:07:50.148Z,0
2024-01-12T05:09:33.681Z,0
2024-01-12T05:11:17.529Z,0
2024-01-12T05:13:01.231Z,0
2024-01-12T05:14:44.978Z,0
2024-01-12T05:16:28.589Z,0
2024-01-12T05:18:12.340Z,0
2024-01-12T05:19:55.934Z,0
2024-01-12T05:21:39.723Z,0
2024-01-12T05:23:23.440Z,0
2024-01-12T05:25:07.312Z,1
2024-01-12T05:26:50.800Z,0
2024-01-12T05:28:34.559Z,0
2024-01-12T05:30:18.250Z,0
2024-01-12T05:32:02.006Z,0
2024-01-12T05:33:45.715Z,0
2024-01-12T05:35:29.114Z,0
2024-01-12T05:37:13.027Z,0
2024-01-12T05:38:56.783Z,0
2024-01-12T05:40:40.409Z,0
2024-01-12T05:42:24.204Z,0
2024-01-12T05:44:07.979Z,0
2024-01-12T05:45:51.419Z,0
2024-01-12T05:47:35.365Z,0
2024-01-12T05:49:18.956Z,0
2024-01-12T05:51:02.761Z,0
2024-01-12T05:52:46.266Z,0
2024-01-12T05:54:29.938Z,0
2024-01-12T05:56:13.810Z,0
2024-01-12T05:57:57.394Z,0
2024-01-12T05:59:41.055Z,0
2024-01-12T06:01:24.887Z,0
2024-01-12T06:03:08.568Z,0
2024-01-12T06:04:52.388Z,0
2024-01-12T06:06:36.135Z,0
2024-01-12T06:08:19.764Z,0
2024-01-12T06:10:03.375Z,0
2024-01-12T06:11:47.110Z,0
2024-01-12T06:13:30.846Z,0
2024-01-12T06:15:14.404Z,0
2024-01-12T06:16:58.219Z,0
2024-01-12T06:18:41.642Z,0
2024-01-12T06:20:25.660Z,0
2024-01-12T06:22:09.294Z,0
2024-01-12T06:23:52.858Z,0
2024-01-12T06:25:36.822Z,0
2024-01-12T06:27:20.123Z,0
2024-01-12T06:29:03.840Z,0
2024-01-12T06:30:47.605Z,0
2024-01-12T06:32:31.277Z,0
2024-01-12T06:34:15.281Z,0
2024-01-12T06:35:59.004Z,0
2024-01-12T06:37:42.488Z,0
2024-01-12T06:39:26.377Z,0
2024-01-12T06:41:10.008Z,0
2024-01-12T06:42:53.450Z,0
2024-01-12T06:44:37.370Z,0
2024-01-12T06:46:21.120Z,1
2024-01-12T06:48:04.859Z,1
2024-01-12T06:49:48.671Z,0
2024-01-12T06:51:32.177Z,1
2024-01-12T06:53:15.991Z,1
2024-01-12T06:55:00.220Z,1
2024-01-12T06:56:43.456Z,1
2024-01-12T06:58:27.123Z,2
2024-01-12T07:00:10.636Z,2
2024-01-12T07:01:54.441Z,2
2024-01-12T07:03:38.277Z,2
2024-01-12T07:05:21.812Z,3
2024-01-12T07:07:05.565Z,3
2024-01-12T07:08:49.018Z,3
2024-01-12T07:10:32.742Z,3
2024-01-12T07:12:16.736Z,3
2024-01-12T07:14:00.343Z,4
2024-01-12T07:15:43.898Z,5
2024-01-12T07:17:27.767Z,5
2024-01-12T07:19:11.454Z,6
2024-01-12T07:20:55.210Z,6
2024-01-12T07:22:38.863Z,8
2024-01-12T07:24:22.447Z,8
2024-01-12T07:26:06.306Z,10
2024-01-12T07:27:49.745Z,11
2024-01-12T07:29:33.610Z,11
2024-01-12T07:31:17.222Z,12
2024-01-12T07:33:01.193Z,14
2024-01-12T07:34:44.894Z,15
2024-01-12T07:36:28.480Z,15
2024-01-12T07:38:12.293Z,17
2024-01-12T07:39:55.921Z,274
2024-01-12T07:41:39.664Z,294
2024-01-12T07:43:23.072Z,316
2024-01-12T07:45:07.051Z,338
2024-01-12T07:46:50.813Z,356
2024-01-12T07:48:34.548Z,374
2024-01-12T07:50:18.216Z,391
2024-01-12T07:52:01.887Z,409
2024-01-12T07:53:45.708Z,428
2024-01-12T07:55:29.354Z,445
2024-01-12T07:57:12.982Z,463
2024-01-12T07:58:56.569Z,483
2024-01-12T08:00:40.328Z,503
2024-01-12T08:02:24.176Z,524
2024-01-12T08:04:07.705Z,539
2024-01-12T08:05:51.501Z,549
2024-01-12T08:07:35.228Z,565
2024-01-12T08:09:18.894Z,584
2024-01-12T08:11:02.728Z,598
2024-01-12T08:12:46.294Z,621
2024-01-12T08:14:30.029Z,634
2024-01-12T08:16:13.784Z,648
2024-01-12T08:17:57.371Z,662
2024-01-12T08:19:41.107Z,680
2024-01-12T08:21:24.843Z,701
2024-01-12T08:23:08.438Z,703
2024-01-12T08:24:51.917Z,717
2024-01-12T08:26:35.753Z,729
2024-01-12T08:28:19.514Z,741
2024-01-12T08:30:03.241Z,754
2024-01-12T08:31:46.855Z,768
2024-01-12T08:33:30.572Z,772
2024-01-12T08:35:14.401Z,773
2024-01-12T08:36:57.835Z,773
2024-01-12T08:38:41.557Z,772
2024-01-12T08:40:25.649Z,773
2024-01-12T08:42:09.233Z,773
2024-01-12T08:43:52.764Z,773
2024-01-12T08:45:36.681Z,773
2024-01-12T08:47:20.352Z,772
2024-01-12T08:49:04.134Z,772
2024-01-12T08:50:47.785Z,772
2024-01-12T08:52:31.582Z,773
2024-01-12T08:54:14.874Z,772
2024-01-12T08:55:58.911Z,773
2024-01-12T08:57:42.624Z,772
2024-01-12T08:59:26.202Z,772
2024-01-12T09:01:10.027Z,771
2024-01-12T09:02:53.713Z,773
2024-01-12T09:04:37.182Z,772
2024-01-12T09:06:21.112Z,773
2024-01-12T09:08:04.845Z,772
2024-01-12T09:09:48.459Z,773
2024-01-12T09:11:32.164Z,772
2024-01-12T09:13:15.926Z,773
2024-01-12T09:14:59.582Z,773
2024-01-12T09:16:43.290Z,773
2024-01-12T09:18:26.935Z,773
2024-01-12T09:20:10.747Z,773
2024-01-12T09:21:54.366Z,773
2024-01-12T09:23:37.989Z,773
2024-01-12T09:25:21.578Z,773
2024-01-12T09:27:05.384Z,772
2024-01-12T09:28:49.110Z,773
2024-01-12T09:30:32.961Z,773
2024-01-12T09:32:16.349Z,773
2024-01-12T09:34:00.205Z,774
2024-01-12T09:35:44.055Z,773
2024-01-12T09:37:27.844Z,774
2024-01-12T09:39:11.150Z,773
2024-01-12T09:40:55.104Z,773
2024-01-12T09:42:38.614Z,773
2024-01-12T09:44:22.417Z,773
2024-01-12T09:46:06.292Z,773
2024-01-12T09:47:49.926Z,773
2024-01-12T09:49:33.711Z,773
2024-01-12T09:51:17.127Z,773
2024-01-12T09:53:00.776Z,773
2024-01-12T09:54:44.493Z,773
2024-01-12T09:56:28.176Z,773
2024-01-12T09:58:12.137Z,773
2024-01-12T09:59:55.597Z,773
2024-01-12T10:01:39.455Z,774
2024-01-12T10:03:23.207Z,773
2024-01-12T10:05:06.688Z,773
2024-01-12T10:06:50.758Z,773
2024-01-12T10:08:34.398Z,773
2024-01-12T10:10:18.097Z,773
2024-01-12T10:12:01.831Z,773
2024-01-12T10:13:45.493Z,773
2024-01-12T10:15:29.196Z,773
2024-01-12T10:17:12.862Z,773
2024-01-12T10:18:56.467Z,773
2024-01-12T10:20:40.142Z,773
2024-01-12T10:22:23.901Z,773
2024-01-12T10:24:07.744Z,774
2024-01-12T10:25:51.456Z,773
2024-01-12T10:27:35.237Z,774
2024-01-12T10:29:18.866Z,774
2024-01-12T10:31:02.530Z,773
2024-01-12T10:32:46.333Z,774
2024-01-12T10:34:29.915Z,774
2024-01-12T10:36:13.695Z,773
2024-01-12T10:37:57.370Z,773
2024-01-12T10:39:40.837Z,774
2024-01-12T10:41:24.789Z,774
2024-01-12T10:43:08.529Z,773
2024-01-12T10:44:52.080Z,773
2024-01-12T10:46:35.817Z,774
2024-01-12T10:48:19.318Z,773
2024-01-12T10:50:02.923Z,773
2024-01-12T10:51:46.869Z,774
2024-01-12T10:53:30.607Z,773
2024-01-12T10:55:14.225Z,773
2024-01-12T10:56:57.977Z,774
2024-01-12T10:58:41.694Z,774
2024-01-12T11:00:25.390Z,774
2024-01-12T11:02:09.155Z,774
2024-01-12T11:03:52.837Z,773
2024-01-12T11:05:36.342Z,774
2024-01-12T11:07:20.071Z,774
2024-01-12T11:09:03.932Z,773
2024-01-12T11:10:47.460Z,774
2024-01-12T11:12:31.053Z,775
2024-01-12T11:14:15.017Z,773
2024-01-12T11:15:58.716Z,774
2024-01-12T11:17:42.548Z,773
2024-01-12T11:19:26.164Z,774
2024-01-12T11:21:09.915Z,774
2024-01-12T11:22:53.529Z,774
2024-01-12T11:24:37.145Z,774
2024-01-12T11:26:20.962Z,774
2024-01-12T11:28:04.677Z,774
2024-01-12T11:29:48.390Z,774
2024-01-12T11:31:32.099Z,774
2024-01-12T11:33:15.772Z,774
2024-01-12T11:34:59.337Z,773
2024-01-12T11:36:43.153Z,774
2024-01-12T11:38:26.726Z,773
2024-01-12T11:40:10.548Z,771
2024-01-12T11:41:54.359Z,774
2024-01-12T11:43:37.991Z,774
2024-01-12T11:45:21.380Z,774
2024-01-12T11:47:05.329Z,774
2024-01-12T11:48:49.078Z,774
2024-01-12T11:50:32.798Z,774
2024-01-12T11:52:16.186Z,774
2024-01-12T11:54:00.060Z,774
2024-01-12T11:55:43.942Z,774
2024-01-12T11:57:27.659Z,773
2024-01-12T11:59:11.253Z,773
2024-01-12T12:00:55.118Z,774
2024-01-12T12:02:38.749Z,774
2024-01-12T12:04:22.274Z,774
2024-01-12T12:06:05.995Z,774
2024-01-12T12:07:49.829Z,774
2024-01-12T12:09:33.203Z,774
2024-01-12T12:11:17.084Z,774
2024-01-12T12:13:00.874Z,774
2024-01-12T12:14:44.617Z,774
2024-01-12T12:16:28.025Z,774
2024-01-12T12:18:11.985Z,774
2024-01-12T12:19:55.659Z,775
2024-01-12T12:21:39.213Z,774
2024-01-12T12:23:23.133Z,774
2024-01-12T12:25:06.595Z,773
2024-01-12T12:26:50.244Z,774
2024-01-12T12:28:33.918Z,774
2024-01-12T12:30:17.707Z,774
2024-01-12T12:32:01.365Z,727
2024-01-12T12:33:45.312Z,729
2024-01-12T12:35:28.787Z,730
2024-01-12T12:37:12.628Z,733
2024-01-12T12:38:56.406Z,721
2024-01-12T12:40:40.165Z,773
2024-01-12T12:42:23.827Z,774
2024-01-12T12:44:07.458Z,760
2024-01-12T12:45:51.128Z,756
2024-01-12T12:47:34.970Z,760
2024-01-12T12:49:18.618Z,755
2024-01-12T12:51:02.461Z,742
2024-01-12T12:52:45.857Z,732
2024-01-12T12:54:29.562Z,722
2024-01-12T12:56:13.370Z,701
2024-01-12T12:57:56.841Z,674
2024-01-12T12:59:40.766Z,774
2024-01-12T13:01:24.553Z,774
2024-01-12T13:03:08.119Z,774
2024-01-12T13:04:51.908Z,774
2024-01-12T13:06:35.513Z,774
2024-01-12T13:08:19.389Z,774
2024-01-12T13:10:03.079Z,775
2024-01-12T13:11:46.700Z,773
2024-01-12T13:13:30.417Z,774
2024-01-12T13:15:14.019Z,774
2024-01-12T13:16:57.839Z,775
2024-01-12T13:18:41.516Z,775
2024-01-12T13:20:25.321Z,775
2024-01-12T13:22:08.841Z,775
2024-01-12T13:23:52.364Z,774
2024-01-12T13:25:36.228Z,775
2024-01-12T13:27:20.205Z,775
2024-01-12T13:29:03.676Z,775
2024-01-12T13:30:47.280Z,775
2024-01-12T13:32:31.119Z,774
2024-01-12T13:34:14.873Z,775
2024-01-12T13:35:58.473Z,775
2024-01-12T13:37:42.267Z,774
2024-01-12T13:39:25.917Z,774
2024-01-12T13:41:09.692Z,774
2024-01-12T13:42:53.497Z,774
2024-01-12T13:44:37.158Z,774
2024-01-12T13:46:20.797Z,775
2024-01-12T13:48:04.415Z,503
2024-01-12T13:49:48.390Z,505
2024-01-12T13:51:31.927Z,488
2024-01-12T13:53:15.542Z,480
2024-01-12T13:54:59.396Z,478
2024-01-12T13:56:42.908Z,478
2024-01-12T13:58:26.714Z,468
2024-01-12T14:00:10.317Z,458
2024-01-12T14:01:53.965Z,455
2024-01-12T14:03:37.737Z,463
2024-01-12T14:05:21.220Z,454
2024-01-12T14:07:05.187Z,447
2024-01-12T14:08:48.613Z,447
2024-01-12T14:10:32.709Z,442
2024-01-12T14:12:16.266Z,433
2024-01-12T14:14:00.070Z,429
2024-01-12T14:15:43.707Z,427
2024-01-12T14:17:27.411Z,417
2024-01-12T14:19:10.853Z,404
2024-01-12T14:20:54.661Z,390
2024-01-12T14:22:38.510Z,378
2024-01-12T14:24:22.250Z,362
2024-01-12T14:26:05.937Z,352
2024-01-12T14:27:49.605Z,339
2024-01-12T14:29:33.302Z,329
2024-01-12T14:31:16.933Z,321
2024-01-12T14:33:00.440Z,313
2024-01-12T14:34:44.425Z,306
2024-01-12T14:36:28.160Z,300
2024-01-12T14:38:11.725Z,293
2024-01-12T14:39:55.330Z,285
2024-01-12T14:41:39.266Z,276
2024-01-12T14:43:22.739Z,270
2024-01-12T14:45:06.507Z,265
2024-01-12T14:46:50.158Z,260
2024-01-12T14:48:34.057Z,254
2024-01-12T14:50:17.790Z,248
2024-01-12T14:52:01.265Z,245
2024-01-12T14:53:44.965Z,243
2024-01-12T14:55:28.595Z,236
2024-01-12T14:57:12.282Z,227
2024-01-12T14:58:55.963Z,221
2024-01-12T15:00:39.673Z,210
2024-01-12T15:02:23.373Z,203
2024-01-12T15:04:07.084Z,198
2024-01-12T15:05:50.794Z,190
2024-01-12T15:07:34.470Z,192
2024-01-12T15:09:18.186Z,187
2024-01-12T15:11:01.883Z,184
2024-01-12T15:12:45.595Z,180
2024-01-12T15:14:29.309Z,173
2024-01-12T15:16:12.998Z,162
2024-01-12T15:17:57.263Z,144
2024-01-12T15:19:40.406Z,132
2024-01-12T15:21:24.104Z,120
2024-01-12T15:23:07.805Z,113
2024-01-12T15:24:51.498Z,115
2024-01-12T15:26:35.219Z,115
2024-01-12T15:28:18.909Z,108
2024-01-12T15:30:02.606Z,88
2024-01-12T15:31:46.309Z,76
2024-01-12T15:33:30.021Z,67
2024-01-12T15:35:13.712Z,68
2024-01-12T15:36:57.413Z,69
2024-01-12T15:38:41.103Z,68
2024-01-12T15:40:24.849Z,64
2024-01-12T15:42:08.534Z,58
2024-01-12T15:43:52.224Z,51
2024-01-12T15:45:35.938Z,46
2024-01-12T15:47:19.641Z,42
2024-01-12T15:49:03.344Z,39
2024-01-12T15:50:47.072Z,35
2024-01-12T15:52:30.765Z,33
2024-01-12T15:54:14.434Z,30
2024-01-12T15:55:58.137Z,27
2024-01-12T15:57:41.852Z,22
2024-01-12T15:59:25.541Z,19
2024-01-12T16:01:09.230Z,16
2024-01-12T16:02:52.953Z,14
2024-01-12T16:04:36.630Z,11
2024-01-12T16:06:20.359Z,9
2024-01-12T16:08:04.047Z,8
2024-01-12T16:09:47.764Z,5
2024-01-12T16:11:31.456Z,4
2024-01-12T16:13:15.168Z,3
2024-01-12T16:14:58.873Z,2
2024-01-12T16:16:42.556Z,2
2024-01-12T16:18:26.258Z,1
2024-01-12T16:20:09.964Z,1
2024-01-12T16:21:53.669Z,0
2024-01-12T16:23:37.376Z,0
2024-01-12T16:25:21.091Z,0
2024-01-12T16:27:04.785Z,0
2024-01-12T16:28:48.492Z,84
2024-01-12T16:30:32.200Z,84
2024-01-12T16:32:15.884Z,88
2024-01-12T16:33:59.597Z,87
2024-01-12T16:35:43.282Z,89
2024-01-12T16:37:26.994Z,89
2024-01-12T16:39:10.697Z,84
2024-01-12T16:40:54.414Z,85
2024-01-12T16:42:38.091Z,86
2024-01-12T16:44:21.814Z,81
2024-01-12T16:46:05.510Z,82
2024-01-12T16:47:49.215Z,1
2024-01-12T16:49:32.911Z,0
2024-01-12T16:51:16.617Z,0
2024-01-12T16:53:00.327Z,0
2024-01-12T16:54:44.037Z,0
2024-01-12T16:56:27.741Z,85
2024-01-12T16:58:11.434Z,86
2024-01-12T16:59:55.155Z,84
2024-01-12T17:01:38.837Z,1
2024-01-12T17:03:22.550Z,0
2024-01-12T17:05:06.234Z,0
2024-01-12T17:06:49.936Z,1
2024-01-12T17:08:33.648Z,2
2024-01-12T17:10:17.368Z,2
2024-01-12T17:12:01.042Z,2
2024-01-12T17:13:44.764Z,3
2024-01-12T17:15:28.451Z,2
2024-01-12T17:17:12.162Z,2
2024-01-12T17:18:55.868Z,3
2024-01-12T17:20:39.556Z,2
2024-01-12T17:22:23.261Z,3
2024-01-12T17:24:06.989Z,2
2024-01-12T17:25:50.658Z,4
2024-01-12T17:27:34.361Z,89
2024-01-12T17:29:18.069Z,89
2024-01-12T17:31:01.763Z,89
2024-01-12T17:32:45.473Z,91
2024-01-12T17:34:29.176Z,84
2024-01-12T17:36:12.866Z,90
2024-01-12T17:37:56.585Z,89
2024-01-12T17:39:40.325Z,5
2024-01-12T17:41:23.983Z,5
2024-01-12T17:43:07.691Z,5
2024-01-12T17:44:51.379Z,3
2024-01-12T17:46:35.076Z,3
2024-01-12T17:48:18.780Z,3
2024-01-12T17:50:02.507Z,3
2024-01-12T17:51:46.190Z,4
2024-01-12T17:53:29.947Z,3
2024-01-12T17:55:13.646Z,3
2024-01-12T17:56:57.298Z,3
2024-01-12T17:58:41.038Z,3
2024-01-12T18:00:24.695Z,3
2024-01-12T18:02:08.412Z,3
2024-01-12T18:03:52.130Z,4
2024-01-12T18:05:35.819Z,4
2024-01-12T18:07:19.513Z,2
2024-01-12T18:09:03.222Z,3
2024-01-12T18:10:46.934Z,2
2024-01-12T18:12:30.619Z,4
2024-01-12T18:14:14.319Z,5
2024-01-12T18:15:58.025Z,6
2024-01-12T18:17:41.742Z,5
2024-01-12T18:19:25.472Z,5
2024-01-12T18:21:09.133Z,4
2024-01-12T18:22:52.830Z,3
2024-01-12T18:24:36.537Z,775
2024-01-12T18:26:20.245Z,775
2024-01-12T18:28:03.929Z,774
2024-01-12T18:29:47.615Z,774
2024-01-12T18:31:31.336Z,774
2024-01-12T18:33:15.027Z,27
2024-01-12T18:34:58.871Z,26
2024-01-12T18:36:42.447Z,28
2024-01-12T18:38:26.145Z,28
2024-01-12T18:40:09.852Z,17
2024-01-12T18:41:53.540Z,24
2024-01-12T18:43:37.272Z,23
2024-01-12T18:45:20.970Z,22
2024-01-12T18:47:04.659Z,23
2024-01-12T18:48:48.365Z,19
2024-01-12T18:50:32.074Z,16
2024-01-12T18:52:15.836Z,17
2024-01-12T18:53:59.455Z,18
2024-01-12T18:55:43.247Z,18
2024-01-12T18:57:26.877Z,18
2024-01-12T18:59:10.558Z,20
2024-01-12T19:00:54.270Z,22
2024-01-12T19:02:37.975Z,23
2024-01-12T19:04:21.704Z,19
2024-01-12T19:06:05.355Z,38
2024-01-12T19:07:49.075Z,38
2024-01-12T19:09:32.782Z,22
2024-01-12T19:11:16.485Z,21
2024-01-12T19:13:00.183Z,20
2024-01-12T19:14:43.885Z,24
2024-01-12T19:16:27.595Z,24
2024-01-12T19:18:11.301Z,24
2024-01-12T19:19:55.011Z,27
2024-01-12T19:21:38.695Z,26
2024-01-12T19:23:22.394Z,17
2024-01-12T19:25:06.093Z,20
2024-01-12T19:26:49.900Z,17
2024-01-12T19:28:33.497Z,18
2024-01-12T19:30:17.215Z,17
2024-01-12T19:32:00.916Z,16
2024-01-12T19:33:44.621Z,36
2024-01-12T19:35:28.374Z,38
2024-01-12T19:37:12.024Z,26
2024-01-12T19:38:55.729Z,26
2024-01-12T19:40:39.444Z,25
2024-01-12T19:42:23.157Z,24
2024-01-12T19:44:06.811Z,21
2024-01-12T19:45:50.535Z,21
2024-01-12T19:47:34.233Z,19
2024-01-12T19:49:17.931Z,22
2024-01-12T19:51:01.620Z,22
2024-01-12T19:52:45.323Z,20
2024-01-12T19:54:29.051Z,20
2024-01-12T19:56:12.744Z,18
2024-01-12T19:57:56.443Z,24
2024-01-12T19:59:40.152Z,20
2024-01-12T20:01:23.856Z,23
2024-01-12T20:03:07.781Z,17
2024-01-12T20:04:51.256Z,18
2024-01-12T20:06:34.961Z,22
2024-01-12T20:08:18.696Z,23
2024-01-12T20:10:02.358Z,22
2024-01-12T20:11:46.074Z,25
2024-01-12T20:13:29.738Z,124
2024-01-12T20:15:13.509Z,28
2024-01-12T20:16:57.177Z,18
2024-01-12T20:18:40.856Z,25
2024-01-12T20:20:24.652Z,21
2024-01-12T20:22:08.265Z,23
2024-01-12T20:23:52.001Z,20
2024-01-12T20:25:35.696Z,20
2024-01-12T20:27:19.393Z,20
2024-01-12T20:29:03.091Z,20
2024-01-12T20:30:46.843Z,18
2024-01-12T20:32:30.493Z,21
2024-01-12T20:34:14.189Z,21
2024-01-12T20:35:57.933Z,19
2024-01-12T20:37:41.605Z,18
2024-01-12T20:39:25.308Z,21
2024-01-12T20:41:09.013Z,20
2024-01-12T20:42:52.724Z,17
2024-01-12T20:44:36.432Z,39
2024-01-12T20:46:20.112Z,19
2024-01-12T20:48:03.813Z,18
2024-01-12T20:49:47.533Z,29
2024-01-12T20:51:31.218Z,22
2024-01-12T20:53:14.908Z,24
2024-01-12T20:54:58.619Z,22
2024-01-12T20:56:42.321Z,26
2024-01-12T20:58:26.033Z,24
2024-01-12T21:00:09.737Z,29
2024-01-12T21:01:53.424Z,28
2024-01-12T21:03:37.151Z,29
2024-01-12T21:05:20.868Z,30
2024-01-12T21:07:04.537Z,30
2024-01-12T21:08:48.242Z,27
2024-01-12T21:10:31.941Z,27
2024-01-12T21:12:15.662Z,28
2024-01-12T21:13:59.342Z,27
2024-01-12T21:15:43.050Z,27
2024-01-12T21:17:26.903Z,29
2024-01-12T21:19:10.460Z,27
2024-01-12T21:20:54.141Z,28
2024-01-12T21:22:37.944Z,28
2024-01-12T21:24:21.567Z,28
2024-01-12T21:26:05.287Z,28
2024-01-12T21:27:48.955Z,28
2024-01-12T21:29:32.689Z,28
2024-01-12T21:31:16.361Z,37
2024-01-12T21:33:00.065Z,37
2024-01-12T21:34:43.752Z,26
2024-01-12T21:36:27.466Z,27
2024-01-12T21:38:11.199Z,27
2024-01-12T21:39:54.884Z,28
2024-01-12T21:41:38.588Z,4
2024-01-12T21:43:22.286Z,5
2024-01-12T21:45:05.993Z,5
2024-01-12T21:46:49.781Z,5
2024-01-12T21:48:33.454Z,5
2024-01-12T21:50:17.097Z,5
2024-01-12T21:52:00.807Z,5
2024-01-12T21:53:44.506Z,5
2024-01-12T21:55:28.220Z,5
2024-01-12T21:57:11.913Z,5
2024-01-12T21:58:55.613Z,4
2024-01-12T22:00:39.319Z,5
2024-01-12T22:02:23.014Z,5
2024-01-12T22:04:06.703Z,6
2024-01-12T22:05:50.505Z,5
2024-01-12T22:07:34.137Z,5
2024-01-12T22:09:17.843Z,4
2024-01-12T22:11:01.541Z,5
2024-01-12T22:12:45.247Z,4
2024-01-12T22:14:28.930Z,5
2024-01-12T22:16:12.694Z,5
2024-01-12T22:17:56.335Z,5
2024-01-12T22:19:40.046Z,5
2024-01-12T22:21:23.745Z,5
2024-01-12T22:23:07.460Z,4
2024-01-12T22:24:51.154Z,5
2024-01-12T22:26:34.834Z,4
2024-01-12T22:28:18.548Z,5
2024-01-12T22:30:02.269Z,4
2024-01-12T22:31:45.944Z,4
2024-01-12T22:33:29.673Z,4
2024-01-12T22:35:13.366Z,4
2024-01-12T22:36:57.069Z,5
2024-01-12T22:38:40.776Z,5
2024-01-12T22:40:24.497Z,4
2024-01-12T22:42:08.179Z,4
2024-01-12T22:43:51.920Z,3
2024-01-12T22:45:35.598Z,5
2024-01-12T22:47:19.272Z,6
2024-01-12T22:49:02.978Z,5
2024-01-12T22:50:46.672Z,5
2024-01-12T22:52:30.381Z,5
2024-01-12T22:54:14.097Z,4
2024-01-12T22:55:57.783Z,4
2024-01-12T22:57:41.503Z,4
2024-01-12T22:59:25.197Z,4
2024-01-12T23:01:08.936Z,5
2024-01-12T23:02:52.598Z,4
2024-01-12T23:04:36.305Z,4
2024-01-12T23:06:20.059Z,4
2024-01-12T23:08:03.736Z,4
2024-01-12T23:09:47.432Z,5
2024-01-12T23:11:31.133Z,5
2024-01-12T23:13:14.828Z,17
2024-01-12T23:14:58.527Z,36
2024-01-12T23:16:42.233Z,26
2024-01-12T23:18:25.920Z,25
2024-01-12T23:20:32.261Z,26
2024-01-12T23:21:53.324Z,26
2024-01-12T23:23:37.039Z,26
2024-01-12T23:25:20.748Z,25
2024-01-12T23:27:04.459Z,26
2024-01-12T23:28:48.151Z,27
2024-01-12T23:30:31.869Z,27
2024-01-12T23:32:15.556Z,27
2024-01-12T23:33:59.263Z,27
2024-01-12T23:35:42.966Z,26
2024-01-12T23:37:26.666Z,27
2024-01-12T23:39:10.369Z,27
2024-01-12T23:40:54.061Z,26
2024-01-12T23:42:37.749Z,26
2024-01-12T23:44:21.463Z,27
2024-01-12T23:46:05.176Z,25
2024-01-12T23:47:48.855Z,76
2024-01-12T23:49:32.582Z,79
2024-01-12T23:51:16.287Z,89
2024-01-12T23:53:00.053Z,88
2024-01-12T23:54:43.696Z,89
2024-01-12T23:56:27.443Z,89
2024-01-12T23:58:11.094Z,89
2024-01-12T23:59:54.806Z,90
